createdAt,value
2017-12-19T00:02:20.539Z,102610.66
2017-12-19T00:04:53.585Z,102617.81
2017-12-19T00:07:26.642Z,102616.50
2017-12-19T00:09:58.237Z,102623.03
2017-12-19T00:12:31.214Z,102631.81
2017-12-19T00:15:05.069Z,102634.06
2017-12-19T00:17:38.055Z,102639.19
2017-12-19T00:20:09.526Z,102637.59
2017-12-19T00:22:44.596Z,102640.26
2017-12-19T00:25:16.841Z,102637.19
2017-12-19T00:27:48.030Z,102645.87
2017-12-19T00:30:19.623Z,102661.67
2017-12-19T00:32:51.095Z,102666.34
2017-12-19T00:35:21.427Z,102668.38
2017-12-19T00:37:52.676Z,102680.80
2017-12-19T00:40:28.627Z,102681.31
2017-12-19T00:43:00.292Z,102685.73
2017-12-19T00:45:31.939Z,102682.22
2017-12-19T00:48:02.874Z,102689.44
2017-12-19T00:50:34.262Z,102700.26
2017-12-19T00:55:47.444Z,102698.34
2017-12-19T00:58:17.705Z,102697.41
2017-12-19T01:00:48.822Z,102714.41
2017-12-19T01:03:20.227Z,102709.13
2017-12-19T01:05:51.222Z,102704.77
2017-12-19T01:08:22.184Z,102685.61
2017-12-19T01:10:53.227Z,102717.50
2017-12-19T01:13:24.482Z,102724.89
2017-12-19T01:15:55.320Z,102721.23
2017-12-19T01:18:26.123Z,102716.28
2017-12-19T01:20:57.534Z,102724.41
2017-12-19T01:23:28.614Z,102732.22
2017-12-19T01:25:59.836Z,102728.55
2017-12-19T01:28:31.279Z,102730.19
2017-12-19T01:31:02.860Z,102731.37
2017-12-19T01:33:34.896Z,102735.58
2017-12-19T01:36:05.627Z,102733.42
2017-12-19T01:38:36.390Z,102740.16
2017-12-19T01:41:07.139Z,102746.75
2017-12-19T01:43:40.108Z,102753.17
2017-12-19T01:48:51.901Z,102751.97
2017-12-19T01:51:22.481Z,102764.43
2017-12-19T01:53:53.488Z,102784.81
2017-12-19T01:56:26.221Z,102784.31
2017-12-19T01:58:58.632Z,102778.23
2017-12-19T02:01:30.582Z,102792.70
2017-12-19T02:04:01.188Z,102788.30
2017-12-19T02:06:33.399Z,102791.59
2017-12-19T02:09:04.856Z,102791.31
2017-12-19T02:11:37.522Z,102792.16
2017-12-19T02:14:10.664Z,102789.45
2017-12-19T02:16:43.314Z,102795.94
2017-12-19T02:19:16.116Z,102793.98
2017-12-19T02:21:48.377Z,102789.07
2017-12-19T02:24:20.983Z,102790.36
2017-12-19T02:26:54.192Z,102787.38
2017-12-19T02:29:25.585Z,102779.37
2017-12-19T02:31:57.950Z,102785.75
2017-12-19T02:34:31.295Z,102779.84
2017-12-19T02:37:02.571Z,102791.63
2017-12-19T02:39:34.273Z,102794.30
2017-12-19T02:42:05.383Z,102793.78
2017-12-19T02:44:47.725Z,102785.05
2017-12-19T02:47:19.799Z,102794.98
2017-12-19T02:49:52.006Z,102794.30
2017-12-19T02:52:24.865Z,102804.97
2017-12-19T02:54:58.946Z,102803.88
2017-12-19T02:57:32.515Z,102800.80
2017-12-19T03:00:07.242Z,102802.98
2017-12-19T03:02:39.430Z,102812.44
2017-12-19T03:05:10.943Z,102803.20
2017-12-19T03:07:43.481Z,102802.30
2017-12-19T03:10:14.295Z,102806.63
2017-12-19T03:12:44.957Z,102811.14
2017-12-19T03:15:22.114Z,102809.65
2017-12-19T03:17:53.929Z,102814.06
2017-12-19T03:20:25.468Z,102803.86
2017-12-19T03:22:57.529Z,102798.82
2017-12-19T03:25:35.360Z,102801.21
2017-12-19T03:28:06.861Z,102812.72
2017-12-19T03:30:39.160Z,102794.81
2017-12-19T03:33:09.991Z,102803.80
2017-12-19T03:35:41.855Z,102804.13
2017-12-19T03:38:13.475Z,102806.97
2017-12-19T03:40:44.897Z,102827.98
2017-12-19T03:43:16.401Z,102791.22
2017-12-19T03:45:46.953Z,102797.23
2017-12-19T03:48:17.835Z,102795.30
2017-12-19T03:50:50.879Z,102798.41
2017-12-19T03:53:27.477Z,102797.14
2017-12-19T03:55:58.913Z,102797.16
2017-12-19T03:58:31.312Z,102805.91
2017-12-19T04:01:02.021Z,102793.92
2017-12-19T04:03:34.107Z,102804.54
2017-12-19T04:06:05.707Z,102804.81
2017-12-19T04:08:37.520Z,102798.89
2017-12-19T04:11:09.410Z,102799.44
2017-12-19T04:13:41.087Z,102805.09
2017-12-19T04:16:12.391Z,102806.13
2017-12-19T04:18:43.877Z,102809.97
2017-12-19T04:21:14.287Z,102805.45
2017-12-19T04:23:45.623Z,102802.53
2017-12-19T04:26:17.794Z,102799.71
2017-12-19T04:28:49.724Z,102808.95
2017-12-19T04:31:22.478Z,102801.06
2017-12-19T04:33:53.416Z,102803.34
2017-12-19T04:36:25.574Z,102806.08
2017-12-19T04:38:56.738Z,102804.22
2017-12-19T04:41:30.608Z,102804.62
2017-12-19T04:44:03.616Z,102803.37
2017-12-19T04:46:35.317Z,102801.30
2017-12-19T04:49:06.550Z,102803.62
2017-12-19T04:51:38.089Z,102806.54
2017-12-19T04:54:08.956Z,102800.73
2017-12-19T04:56:44.765Z,102799.64
2017-12-19T04:59:16.099Z,102800.22
2017-12-19T05:01:47.345Z,102799.48
2017-12-19T05:04:20.101Z,102804.03
2017-12-19T05:06:51.525Z,102803.27
2017-12-19T05:09:23.045Z,102799.05
2017-12-19T05:11:54.717Z,102802.13
2017-12-19T05:14:26.780Z,102802.89
2017-12-19T05:16:58.957Z,102805.86
2017-12-19T05:19:29.386Z,102799.02
2017-12-19T05:22:00.520Z,102806.86
2017-12-19T05:24:39.051Z,102793.41
2017-12-19T05:27:09.560Z,102799.70
2017-12-19T05:29:40.005Z,102800.76
2017-12-19T05:32:13.376Z,102801.70
2017-12-19T05:34:44.206Z,102818.26
2017-12-19T05:37:15.842Z,102820.05
2017-12-19T05:39:47.473Z,102827.19
2017-12-19T05:42:18.586Z,102829.70
2017-12-19T05:44:49.281Z,102828.16
2017-12-19T05:47:21.380Z,102831.00
2017-12-19T05:49:52.434Z,102833.00
2017-12-19T05:52:23.790Z,102844.90
2017-12-19T05:54:54.626Z,102848.56
2017-12-19T05:57:25.540Z,102846.64
2017-12-19T05:59:57.082Z,102847.08
2017-12-19T06:02:29.329Z,102852.78
2017-12-19T06:05:00.186Z,102851.70
2017-12-19T06:07:32.192Z,102850.69
2017-12-19T06:10:03.601Z,102853.45
2017-12-19T06:12:34.520Z,102859.70
2017-12-19T06:15:08.683Z,102859.19
2017-12-19T06:17:39.694Z,102859.48
2017-12-19T06:20:11.684Z,102874.49
2017-12-19T06:22:44.637Z,102873.30
2017-12-19T06:25:19.256Z,102879.68
2017-12-19T06:27:52.382Z,102888.90
2017-12-19T06:30:24.039Z,102881.12
2017-12-19T06:32:54.772Z,102896.39
2017-12-19T06:35:27.256Z,102894.77
2017-12-19T06:37:57.425Z,102899.53
2017-12-19T06:40:30.242Z,102908.02
2017-12-19T06:43:00.981Z,102913.91
2017-12-19T06:45:32.028Z,102915.34
2017-12-19T06:48:16.713Z,102918.63
2017-12-19T06:50:47.129Z,102918.87
2017-12-19T06:53:17.500Z,102919.11
2017-12-19T06:55:48.834Z,102917.30
2017-12-19T06:58:19.440Z,102920.75
2017-12-19T07:00:49.858Z,102873.77
2017-12-19T07:03:23.298Z,102923.38
2017-12-19T07:05:55.553Z,102930.89
2017-12-19T07:08:25.906Z,102933.50
2017-12-19T07:10:56.985Z,102932.65
2017-12-19T07:13:27.850Z,102913.42
2017-12-19T07:15:58.710Z,102919.88
2017-12-19T07:18:32.131Z,102932.59
2017-12-19T07:21:03.391Z,102931.09
2017-12-19T07:23:35.260Z,102938.96
2017-12-19T07:26:05.625Z,102941.45
2017-12-19T07:28:37.997Z,102946.77
2017-12-19T07:31:08.883Z,102937.90
2017-12-19T07:33:39.650Z,102938.87
2017-12-19T07:36:09.938Z,102947.89
2017-12-19T07:38:40.576Z,102942.69
2017-12-19T07:41:12.403Z,102950.91
2017-12-19T07:43:44.835Z,102948.19
2017-12-19T07:46:15.401Z,102943.74
2017-12-19T07:48:46.641Z,102951.98
2017-12-19T07:51:17.335Z,102948.87
2017-12-19T07:53:47.704Z,102954.89
2017-12-19T07:56:24.083Z,102951.91
2017-12-19T07:58:54.368Z,102933.09
2017-12-19T08:01:25.249Z,102946.34
2017-12-19T08:03:58.138Z,102945.20
2017-12-19T08:06:28.986Z,102942.80
2017-12-19T08:08:59.751Z,102940.48
2017-12-19T08:11:31.933Z,102940.64
2017-12-19T08:14:03.458Z,102936.45
2017-12-19T08:16:50.049Z,102945.27
2017-12-19T08:19:22.112Z,102948.52
2017-12-19T08:21:52.397Z,102951.39
2017-12-19T08:24:23.539Z,102952.00
2017-12-19T08:26:57.507Z,102955.98
2017-12-19T08:32:12.407Z,102922.00
2017-12-19T08:34:43.011Z,102955.95
2017-12-19T08:37:14.091Z,102957.30
2017-12-19T08:39:52.593Z,102963.98
2017-12-19T08:42:31.639Z,102962.48
2017-12-19T08:45:05.284Z,102955.05
2017-12-19T08:47:37.849Z,102970.83
2017-12-19T08:50:08.361Z,102971.33
2017-12-19T08:52:41.674Z,102961.94
2017-12-19T08:55:13.376Z,102971.55
2017-12-19T08:57:44.475Z,102975.77
2017-12-19T09:00:22.165Z,102976.28
2017-12-19T09:02:54.367Z,102982.02
2017-12-19T09:05:27.237Z,102988.16
2017-12-19T09:08:02.403Z,102991.89
2017-12-19T09:10:35.855Z,102987.92
2017-12-19T09:13:07.347Z,102994.42
2017-12-19T09:15:43.263Z,102999.63
2017-12-19T09:18:16.234Z,102997.06
2017-12-19T09:20:47.450Z,102991.50
2017-12-19T09:23:18.408Z,102995.83
2017-12-19T09:25:49.425Z,103004.25
2017-12-19T09:28:21.088Z,103010.86
2017-12-19T09:30:51.769Z,103009.23
2017-12-19T09:33:22.995Z,103004.03
2017-12-19T09:35:54.072Z,103011.62
2017-12-19T09:38:25.138Z,103000.84
2017-12-19T09:40:55.695Z,103003.48
2017-12-19T09:43:26.922Z,103009.37
2017-12-19T09:45:57.944Z,103011.87
2017-12-19T09:48:28.837Z,102988.98
2017-12-19T09:51:00.925Z,103011.02
2017-12-19T09:53:33.358Z,103011.86
2017-12-19T09:56:07.377Z,103020.86
2017-12-19T09:58:45.141Z,103014.04
2017-12-19T10:01:16.891Z,103023.35
2017-12-19T10:03:48.039Z,103022.16
2017-12-19T10:06:23.489Z,103023.19
2017-12-19T10:08:54.839Z,103025.23
2017-12-19T10:11:25.696Z,103026.17
2017-12-19T10:14:05.544Z,103018.70
2017-12-19T10:16:38.325Z,103020.33
2017-12-19T10:19:10.377Z,103013.93
2017-12-19T10:21:42.260Z,103019.88
2017-12-19T10:24:13.037Z,103020.63
2017-12-19T10:26:43.622Z,103014.23
2017-12-19T10:29:15.136Z,103008.78
2017-12-19T10:31:47.437Z,103006.92
2017-12-19T10:34:20.165Z,103008.14
2017-12-19T10:36:50.997Z,103009.78
2017-12-19T10:39:22.837Z,103012.25
2017-12-19T10:41:53.591Z,103009.52
2017-12-19T10:44:25.692Z,103004.22
2017-12-19T10:46:59.603Z,103007.16
2017-12-19T10:49:31.352Z,103013.63
2017-12-19T10:52:03.723Z,103011.20
2017-12-19T10:54:34.415Z,103011.77
2017-12-19T10:57:04.991Z,103011.42
2017-12-19T10:59:42.988Z,103012.28
2017-12-19T11:02:14.442Z,103009.46
2017-12-19T11:04:47.330Z,103011.94
2017-12-19T11:07:19.575Z,103007.70
2017-12-19T11:09:50.855Z,103008.86
2017-12-19T11:12:22.960Z,103017.52
2017-12-19T11:14:54.638Z,103024.09
2017-12-19T11:17:38.152Z,103021.66
2017-12-19T11:20:10.488Z,103016.09
2017-12-19T11:22:44.128Z,103015.64
2017-12-19T11:25:19.424Z,103015.22
2017-12-19T11:27:57.873Z,103016.52
2017-12-19T11:30:34.296Z,103003.80
2017-12-19T11:33:17.969Z,103004.22
2017-12-19T11:35:51.184Z,102993.06
2017-12-19T11:38:31.421Z,102991.74
2017-12-19T11:41:06.633Z,102987.22
2017-12-19T11:43:43.152Z,102997.86
2017-12-19T11:46:19.585Z,102995.78
2017-12-19T11:48:54.731Z,102993.25
2017-12-19T11:51:34.519Z,102991.92
2017-12-19T11:54:12.091Z,102985.41
2017-12-19T11:56:46.886Z,102995.63
2017-12-19T11:59:24.490Z,102971.56
2017-12-19T12:02:01.880Z,102988.67
2017-12-19T12:04:40.970Z,102976.67
2017-12-19T12:07:15.716Z,102979.16
2017-12-19T12:09:51.180Z,102979.25
2017-12-19T12:12:29.359Z,102976.80
2017-12-19T12:15:18.044Z,102973.55
2017-12-19T12:20:50.970Z,102973.43
2017-12-19T12:23:33.664Z,102972.53
2017-12-19T12:26:11.682Z,102965.80
2017-12-19T12:28:51.197Z,102961.32
2017-12-19T12:31:33.514Z,102964.99
2017-12-19T12:34:11.782Z,102969.77
2017-12-19T12:37:03.224Z,102967.88
2017-12-19T12:39:47.249Z,102967.92
2017-12-19T12:42:25.825Z,102969.20
2017-12-19T12:45:07.985Z,102965.14
2017-12-19T12:47:42.633Z,102951.23
2017-12-19T12:50:14.706Z,102967.07
2017-12-19T12:52:50.091Z,102965.87
2017-12-19T12:55:21.728Z,102965.99
2017-12-19T12:57:54.470Z,102962.84
2017-12-19T13:00:28.614Z,102951.52
2017-12-19T13:03:03.273Z,102956.56
2017-12-19T13:05:38.432Z,102956.23
2017-12-19T13:08:17.113Z,102953.27
2017-12-19T13:10:51.075Z,102948.18
2017-12-19T13:13:22.272Z,102947.58
2017-12-19T13:15:58.529Z,102946.91
2017-12-19T13:18:32.185Z,102946.05
2017-12-19T13:21:05.647Z,102953.63
2017-12-19T13:23:41.364Z,102942.23
2017-12-19T13:26:19.192Z,102941.95
2017-12-19T13:28:58.846Z,102947.84
2017-12-19T13:31:38.236Z,102938.87
2017-12-19T13:34:12.304Z,102943.83
2017-12-19T13:36:52.370Z,102917.25
2017-12-19T13:39:28.396Z,102935.44
2017-12-19T13:42:02.109Z,102938.30
2017-12-19T13:44:35.532Z,102936.04
2017-12-19T13:47:09.443Z,102940.12
2017-12-19T13:49:45.021Z,102935.81
2017-12-19T13:52:17.483Z,102936.41
2017-12-19T13:54:49.923Z,102938.93
2017-12-19T13:57:21.834Z,102943.22
2017-12-19T13:59:53.781Z,102940.86
2017-12-19T14:02:26.129Z,102935.57
2017-12-19T14:04:57.763Z,102938.56
2017-12-19T14:07:30.345Z,102932.42
2017-12-19T14:10:02.448Z,102929.89
2017-12-19T14:12:34.316Z,102931.62
2017-12-19T14:15:15.051Z,102929.16
2017-12-19T14:17:57.775Z,102925.34
2017-12-19T14:20:29.918Z,102932.25
2017-12-19T14:23:02.105Z,102927.49
2017-12-19T14:25:33.397Z,102927.40
2017-12-19T14:28:05.742Z,102930.39
2017-12-19T14:30:39.794Z,102928.59
2017-12-19T14:33:12.038Z,102928.98
2017-12-19T14:35:44.237Z,102925.63
2017-12-19T14:38:15.446Z,102927.36
2017-12-19T14:40:47.534Z,102923.30
2017-12-19T14:43:28.635Z,102916.05
2017-12-19T14:46:01.870Z,102919.56
2017-12-19T14:48:35.794Z,102915.56
2017-12-19T14:51:09.593Z,102923.86
2017-12-19T14:53:42.457Z,102917.87
2017-12-19T14:56:14.754Z,102922.43
2017-12-19T14:58:46.539Z,102911.98
2017-12-19T15:01:18.916Z,102911.97
2017-12-19T15:03:49.883Z,102906.77
2017-12-19T15:06:22.653Z,102905.06
2017-12-19T15:08:54.940Z,102909.86
2017-12-19T15:11:27.395Z,102901.52
2017-12-19T15:14:00.140Z,102904.02
2017-12-19T15:16:33.269Z,102904.17
2017-12-19T15:19:04.261Z,102895.59
2017-12-19T15:21:35.587Z,102889.62
2017-12-19T15:24:07.190Z,102892.52
2017-12-19T15:26:40.277Z,102899.27
2017-12-19T15:29:11.726Z,102895.25
2017-12-19T15:31:43.509Z,102894.52
2017-12-19T15:34:17.785Z,102899.73
2017-12-19T15:36:50.814Z,102894.81
2017-12-19T15:39:24.071Z,102899.00
2017-12-19T15:41:57.056Z,102899.50
2017-12-19T15:44:34.130Z,102905.63
2017-12-19T15:47:09.333Z,102898.07
2017-12-19T15:49:43.191Z,102893.69
2017-12-19T15:52:17.737Z,102894.19
2017-12-19T15:54:49.985Z,102895.88
2017-12-19T15:57:22.173Z,102895.61
2017-12-19T16:00:00.491Z,102898.14
2017-12-19T16:02:38.253Z,102898.00
2017-12-19T16:05:10.496Z,102901.93
2017-12-19T16:07:41.581Z,102899.77
2017-12-19T16:10:15.648Z,102900.47
2017-12-19T16:12:49.230Z,102905.19
2017-12-19T16:15:22.168Z,102904.86
2017-12-19T16:17:54.586Z,102899.41
2017-12-19T16:20:27.452Z,102897.00
2017-12-19T16:23:10.750Z,102899.10
2017-12-19T16:25:44.725Z,102895.55
2017-12-19T16:28:19.407Z,102885.41
2017-12-19T16:30:54.119Z,102887.59
2017-12-19T16:33:29.826Z,102892.48
2017-12-19T16:36:10.204Z,102890.72
2017-12-19T16:38:44.927Z,102892.84
2017-12-19T16:41:37.293Z,102896.53
2017-12-19T16:44:10.156Z,102897.46
2017-12-19T16:46:43.258Z,102880.69
2017-12-19T16:49:17.282Z,102895.73
2017-12-19T16:51:52.822Z,102876.84
2017-12-19T16:54:47.512Z,102904.61
2017-12-19T16:57:21.267Z,102909.54
2017-12-19T16:59:56.734Z,102904.55
2017-12-19T17:02:31.148Z,102907.14
2017-12-19T17:05:02.320Z,102874.72
2017-12-19T17:10:04.393Z,102885.48
2017-12-19T17:12:35.615Z,102898.33
2017-12-19T17:15:09.683Z,102905.55
2017-12-19T17:17:45.724Z,102915.75
2017-12-19T17:20:20.419Z,102912.66
2017-12-19T17:22:51.919Z,102913.98
2017-12-19T17:25:23.386Z,102919.89
2017-12-19T17:27:55.625Z,102910.16
2017-12-19T17:30:27.508Z,102922.10
2017-12-19T17:33:02.660Z,102930.38
2017-12-19T17:35:34.899Z,102928.77
2017-12-19T17:38:10.166Z,102926.97
2017-12-19T17:40:43.947Z,102932.76
2017-12-19T17:43:20.818Z,102930.84
2017-12-19T17:45:52.794Z,102930.23
2017-12-19T17:48:27.746Z,102927.05
2017-12-19T17:50:59.696Z,102930.48
2017-12-19T17:53:31.714Z,102933.16
2017-12-19T17:56:03.587Z,102928.16
2017-12-19T17:58:38.494Z,102944.75
2017-12-19T18:01:09.348Z,102941.57
2017-12-19T18:03:41.429Z,102943.73
2017-12-19T18:06:13.468Z,102940.78
2017-12-19T18:08:44.965Z,102942.45
2017-12-19T18:11:16.965Z,102948.88
2017-12-19T18:13:49.342Z,102948.91
2017-12-19T18:16:24.299Z,102944.73
2017-12-19T18:18:58.688Z,102952.34
2017-12-19T18:21:31.260Z,102952.08
2017-12-19T18:24:03.156Z,102953.79
2017-12-19T18:26:35.127Z,102958.03
2017-12-19T18:29:08.980Z,102952.22
2017-12-19T18:31:48.497Z,102950.23
2017-12-19T18:34:21.151Z,102944.69
2017-12-19T18:36:54.567Z,102942.09
2017-12-19T18:39:28.265Z,102947.69
2017-12-19T18:41:59.632Z,102942.09
2017-12-19T18:44:33.998Z,102942.56
2017-12-19T18:47:09.003Z,102941.33
2017-12-19T18:49:47.794Z,102932.96
2017-12-19T18:52:20.116Z,102926.11
2017-12-19T18:54:52.190Z,102932.61
2017-12-19T18:57:24.001Z,102930.12
2017-12-19T18:59:54.453Z,102928.05
2017-12-19T19:02:25.520Z,102924.81
2017-12-19T19:04:57.130Z,102927.14
2017-12-19T19:07:30.699Z,102932.84
2017-12-19T19:10:01.190Z,102920.85
2017-12-19T19:12:34.388Z,102926.16
2017-12-19T19:15:14.370Z,102929.95
2017-12-19T19:17:44.901Z,102927.72
2017-12-19T19:20:16.003Z,102923.53
2017-12-19T19:22:46.274Z,102931.33
2017-12-19T19:25:16.892Z,102931.97
2017-12-19T19:27:47.896Z,102920.98
2017-12-19T19:30:18.663Z,102924.39
2017-12-19T19:33:19.772Z,102923.98
2017-12-19T19:35:53.163Z,102927.13
2017-12-19T19:38:23.461Z,102930.88
2017-12-19T19:40:54.451Z,102923.08
2017-12-19T19:43:25.428Z,102921.17
2017-12-19T19:48:34.068Z,102930.47
2017-12-19T19:51:08.678Z,102928.23
2017-12-19T19:53:40.294Z,102926.63
2017-12-19T19:56:11.756Z,102914.66
2017-12-19T19:58:42.028Z,102918.08
2017-12-19T20:01:12.650Z,102917.24
2017-12-19T20:03:43.004Z,102911.41
2017-12-19T20:06:13.246Z,102912.47
2017-12-19T20:08:44.464Z,102910.88
2017-12-19T20:11:15.484Z,102895.33
2017-12-19T20:13:45.995Z,102908.70
2017-12-19T20:16:16.683Z,102910.57
2017-12-19T20:18:47.781Z,102914.58
2017-12-19T20:21:18.926Z,102913.34
2017-12-19T20:23:49.982Z,102910.03
2017-12-19T20:26:20.288Z,102909.37
2017-12-19T20:28:51.423Z,102905.53
2017-12-19T20:31:22.482Z,102911.09
2017-12-19T20:33:56.786Z,102912.91
2017-12-19T20:36:28.644Z,102911.72
2017-12-19T20:39:03.327Z,102895.72
2017-12-19T20:41:35.049Z,102909.62
2017-12-19T20:44:17.972Z,102908.84
2017-12-19T20:46:50.061Z,102905.09
2017-12-19T20:49:20.799Z,102901.90
2017-12-19T20:51:51.071Z,102911.37
2017-12-19T20:54:21.447Z,102906.24
2017-12-19T20:56:53.416Z,102909.99
2017-12-19T20:59:24.184Z,102917.52
2017-12-19T21:01:55.464Z,102906.95
2017-12-19T21:04:26.826Z,102915.69
2017-12-19T21:06:57.411Z,102909.97
2017-12-19T21:09:28.296Z,102916.44
2017-12-19T21:11:59.303Z,102914.08
2017-12-19T21:14:30.372Z,102911.80
2017-12-19T21:17:01.729Z,102911.73
2017-12-19T21:19:32.797Z,102897.78
2017-12-19T21:22:03.907Z,102892.39
2017-12-19T21:24:38.765Z,102899.42
2017-12-19T21:27:09.354Z,102900.23
2017-12-19T21:29:40.909Z,102903.20
2017-12-19T21:32:14.558Z,102905.51
2017-12-19T21:34:45.439Z,102907.09
2017-12-19T21:37:16.676Z,102912.08
2017-12-19T21:39:47.063Z,102912.97
2017-12-19T21:42:17.876Z,102891.49
2017-12-19T21:44:48.288Z,102904.03
2017-12-19T21:47:23.831Z,102917.30
2017-12-19T21:49:55.979Z,102922.80
2017-12-19T21:52:26.812Z,102922.56
2017-12-19T21:54:57.352Z,102893.08
2017-12-19T21:57:28.510Z,102910.95
2017-12-19T21:59:58.850Z,102906.36
2017-12-19T22:02:30.019Z,102914.70
2017-12-19T22:05:01.649Z,102913.85
2017-12-19T22:07:31.946Z,102902.78
2017-12-19T22:10:02.925Z,102909.73
2017-12-19T22:12:35.690Z,102916.20
2017-12-19T22:15:07.302Z,102915.66
2017-12-19T22:17:38.167Z,102912.39
2017-12-19T22:20:09.385Z,102914.39
2017-12-19T22:22:41.051Z,102909.20
2017-12-19T22:25:11.799Z,102911.30
2017-12-19T22:27:48.911Z,102913.12
2017-12-19T22:30:19.394Z,102913.00
2017-12-19T22:32:49.859Z,102909.17
2017-12-19T22:35:20.303Z,102909.97
2017-12-19T22:37:51.764Z,102894.03
2017-12-19T22:40:22.431Z,102888.27
2017-12-19T22:42:52.875Z,102883.19
2017-12-19T22:45:24.532Z,102886.97
2017-12-19T22:47:57.395Z,102892.59
2017-12-19T22:50:27.797Z,102894.03
2017-12-19T22:52:59.841Z,102899.30
2017-12-19T22:55:31.584Z,102896.45
2017-12-19T22:58:03.934Z,102903.50
2017-12-19T23:00:36.365Z,102901.03
2017-12-19T23:03:07.184Z,102891.03
2017-12-19T23:05:37.537Z,102890.48
2017-12-19T23:08:16.774Z,102893.78
2017-12-19T23:10:47.102Z,102891.08
2017-12-19T23:13:17.294Z,102887.80
2017-12-19T23:15:47.945Z,102877.62
2017-12-19T23:18:18.252Z,102887.02
2017-12-19T23:20:49.649Z,102877.84
2017-12-19T23:23:20.646Z,102871.10
2017-12-19T23:25:51.329Z,102870.78
2017-12-19T23:28:21.806Z,102870.55
2017-12-19T23:30:52.606Z,102862.07
2017-12-19T23:33:23.143Z,102865.33
2017-12-19T23:35:53.684Z,102868.13
2017-12-19T23:38:24.467Z,102867.02
2017-12-19T23:40:54.992Z,102869.11
2017-12-19T23:43:25.544Z,102868.08
2017-12-19T23:45:56.342Z,102866.77
2017-12-19T23:48:27.431Z,102864.63
2017-12-19T23:50:58.153Z,102861.83
2017-12-19T23:53:28.704Z,102869.05
2017-12-19T23:55:59.193Z,102874.33
2017-12-19T23:58:30.726Z,102875.19
